createdAt,value
2022-11-07T14:28:51.268Z,99014.94
2022-11-07T14:31:59.069Z,99016.50
2022-11-07T14:35:08.407Z,99024.76
2022-11-07T14:38:16.785Z,99027.65
2022-11-07T14:41:22.412Z,99031.30
2022-11-07T14:44:47.594Z,99033.25
2022-11-07T14:47:53.898Z,99040.35
2022-11-07T14:50:58.730Z,99045.44
2022-11-07T14:54:09.867Z,99048.89
2022-11-07T14:57:14.542Z,99054.32
2022-11-07T15:00:21.320Z,99053.09
2022-11-07T15:03:32.145Z,99061.04
2022-11-07T15:06:43.296Z,99064.79
2022-11-07T15:09:47.796Z,99070.63
2022-11-07T15:12:53.039Z,99076.34
2022-11-07T15:16:02.886Z,99076.86
2022-11-07T15:19:08.430Z,99076.29
2022-11-07T15:22:29.966Z,99074.75
2022-11-07T15:25:38.267Z,99075.76
2022-11-07T15:28:49.333Z,99076.02
2022-11-07T15:31:52.807Z,99073.04
2022-11-07T15:35:23.304Z,99073.25
2022-11-07T15:38:22.907Z,99075.30
2022-11-07T15:41:26.353Z,99075.96
2022-11-07T15:44:29.858Z,99076.42
2022-11-07T15:47:34.142Z,99079.46
2022-11-07T15:50:42.710Z,99082.00
2022-11-07T15:53:46.120Z,99083.02
2022-11-07T15:56:54.462Z,99086.70
2022-11-07T16:00:01.978Z,99095.04
2022-11-07T16:03:05.581Z,99097.35
2022-11-07T16:06:21.600Z,99101.05
2022-11-07T16:09:26.229Z,99100.41
2022-11-07T16:12:29.731Z,99105.48
2022-11-07T16:15:34.361Z,99107.46
2022-11-07T16:18:42.730Z,99106.66
2022-11-07T16:21:47.404Z,99115.77
2022-11-07T16:24:51.007Z,99117.45
2022-11-07T16:27:56.312Z,99111.45
2022-11-07T16:31:00.760Z,99113.33
2022-11-07T16:34:04.277Z,99115.41
2022-11-07T16:37:09.070Z,99114.35
2022-11-07T16:40:17.455Z,99114.63
2022-11-07T16:43:21.443Z,99116.16
2022-11-07T16:46:26.900Z,99120.31
2022-11-07T16:49:33.248Z,99117.98
2022-11-07T16:52:36.689Z,99120.92
2022-11-07T16:55:43.112Z,99122.79
2022-11-07T16:58:46.519Z,99120.91
2022-11-07T17:01:50.861Z,99125.92
2022-11-07T17:04:55.385Z,99129.73
2022-11-07T17:08:00.916Z,99129.33
2022-11-07T17:11:04.724Z,99135.77
2022-11-07T17:14:08.225Z,99136.73
2022-11-07T17:17:14.060Z,99143.60
2022-11-07T17:20:49.907Z,99144.95
2022-11-07T17:23:45.402Z,99140.86
2022-11-07T17:26:48.652Z,99144.98
2022-11-07T17:29:54.163Z,99142.44
2022-11-07T17:32:57.802Z,99146.78
2022-11-07T17:36:01.713Z,99145.41
2022-11-07T17:39:10.437Z,99146.79
2022-11-07T17:42:14.102Z,99143.56
2022-11-07T17:45:18.102Z,99143.83
2022-11-07T17:48:21.401Z,99146.30
2022-11-07T17:51:26.457Z,99148.73
2022-11-07T17:54:29.938Z,99156.80
2022-11-07T17:57:33.341Z,99158.56
2022-11-07T18:00:36.763Z,99159.69
2022-11-07T18:03:40.188Z,99162.39
2022-11-07T18:06:44.136Z,99157.67
2022-11-07T18:09:48.932Z,99159.65
2022-11-07T18:12:52.770Z,99159.98
2022-11-07T18:15:56.243Z,99163.05
2022-11-07T18:19:01.215Z,99165.02
2022-11-07T18:22:04.678Z,99167.27
2022-11-07T18:25:09.291Z,99167.41
2022-11-07T18:28:12.711Z,99164.37
2022-11-07T18:31:18.701Z,99162.13
2022-11-07T18:34:22.153Z,99168.44
2022-11-07T18:37:25.672Z,99162.58
2022-11-07T18:40:29.305Z,99166.17
2022-11-07T18:43:33.082Z,99161.27
2022-11-07T18:46:36.927Z,99166.70
2022-11-07T18:49:40.334Z,99168.73
2022-11-07T18:52:43.663Z,99166.93
2022-11-07T18:55:55.586Z,99162.19
2022-11-07T18:58:59.266Z,99163.90
2022-11-07T19:02:02.640Z,99163.00
2022-11-07T19:05:07.747Z,99157.63
2022-11-07T19:08:11.229Z,99158.46
2022-11-07T19:11:17.152Z,99156.34
2022-11-07T19:14:20.614Z,99153.69
2022-11-07T19:17:24.088Z,99161.79
2022-11-07T19:20:27.640Z,99168.00
2022-11-07T19:23:31.646Z,99172.80
2022-11-07T19:26:35.103Z,99179.22
2022-11-07T19:29:38.542Z,99182.19
2022-11-07T19:32:42.109Z,99183.95
2022-11-07T19:35:45.967Z,99193.09
2022-11-07T19:38:50.413Z,99198.56
2022-11-07T19:41:53.943Z,99202.33
2022-11-07T19:44:57.445Z,99205.17
2022-11-07T19:48:00.947Z,99206.38
2022-11-07T19:51:07.294Z,99213.63
2022-11-07T19:54:10.100Z,99215.80
2022-11-07T19:57:13.556Z,99208.29
2022-11-07T20:00:18.040Z,99208.99
2022-11-07T20:03:21.702Z,99211.15
2022-11-07T20:06:29.942Z,99209.77
2022-11-07T20:09:33.348Z,99207.09
2022-11-07T20:12:36.842Z,99201.27
2022-11-07T20:15:40.946Z,99197.77
2022-11-07T20:18:44.868Z,99201.65
2022-11-07T20:21:48.151Z,99205.52
2022-11-07T20:24:51.489Z,99207.76
2022-11-07T20:27:55.010Z,99207.71
2022-11-07T20:30:58.466Z,99207.98
2022-11-07T20:34:04.595Z,99210.65
2022-11-07T20:37:08.031Z,99210.37
2022-11-07T20:40:13.855Z,99213.86
2022-11-07T20:43:17.398Z,99212.77
2022-11-07T20:46:21.203Z,99213.92
2022-11-07T20:49:24.725Z,99218.31
2022-11-07T20:52:28.274Z,99217.83
2022-11-07T20:55:31.700Z,99215.96
2022-11-07T20:58:37.131Z,99217.79
2022-11-07T21:01:41.777Z,99217.38
2022-11-07T21:05:11.236Z,99219.80
2022-11-07T21:08:08.903Z,99221.88
2022-11-07T21:11:13.340Z,99226.03
2022-11-07T21:14:16.697Z,99231.65
2022-11-07T21:17:20.015Z,99230.77
2022-11-07T21:20:24.113Z,99229.92
2022-11-07T21:23:27.583Z,99231.39
2022-11-07T21:26:34.904Z,99229.41
2022-11-07T21:29:38.477Z,99231.05
2022-11-07T21:32:42.032Z,99229.89
2022-11-07T21:35:45.531Z,99235.48
2022-11-07T21:38:49.606Z,99236.58
2022-11-07T21:41:53.046Z,99236.70
2022-11-07T21:44:56.427Z,99240.67
2022-11-07T21:47:59.850Z,99242.80
2022-11-07T21:51:07.211Z,99242.00
2022-11-07T21:54:11.546Z,99237.11
2022-11-07T21:57:15.007Z,99237.67
2022-11-07T22:00:19.359Z,99236.39
2022-11-07T22:03:37.625Z,99237.92
2022-11-07T22:06:46.873Z,99233.89
2022-11-07T22:09:50.238Z,99234.67
2022-11-07T22:12:53.714Z,99232.83
2022-11-07T22:16:04.384Z,99234.83
2022-11-07T22:19:12.241Z,99243.06
2022-11-07T22:22:16.198Z,99244.51
2022-11-07T22:25:19.631Z,99240.81
2022-11-07T22:28:22.916Z,99240.98
2022-11-07T22:31:29.639Z,99243.33
2022-11-07T22:34:33.069Z,99245.61
2022-11-07T22:37:36.571Z,99246.00
2022-11-07T22:40:44.933Z,99244.27
2022-11-07T22:43:48.987Z,99240.34
2022-11-07T22:46:52.544Z,99243.15
2022-11-07T22:49:55.951Z,99242.20
2022-11-07T22:52:59.438Z,99240.96
2022-11-07T22:56:08.583Z,99244.12
2022-11-07T22:59:12.448Z,99241.45
2022-11-07T23:02:16.077Z,99243.71
2022-11-07T23:05:19.707Z,99241.96
2022-11-07T23:08:23.106Z,99236.55
2022-11-07T23:14:51.667Z,99233.39
2022-11-07T23:17:55.164Z,99231.39
2022-11-07T23:21:11.263Z,99230.36
2022-11-07T23:24:14.148Z,99229.66
2022-11-07T23:27:18.303Z,99227.91
2022-11-07T23:30:21.765Z,99230.88
2022-11-07T23:33:25.370Z,99230.41
2022-11-07T23:36:28.871Z,99232.84
2022-11-07T23:39:32.269Z,99229.98
2022-11-07T23:42:35.770Z,99231.54
2022-11-07T23:45:57.089Z,99229.33
2022-11-07T23:49:18.821Z,99229.02
2022-11-07T23:52:22.318Z,99227.05
2022-11-07T23:55:41.077Z,99223.14
2022-11-07T23:59:03.119Z,99227.91
